ADDS METAR Data INFO
IDs: Format: Raw Decoded Include TAF

Data at: 0923 UTC 13 Dec 2017

KGCM 130915Z AUTO 16007KT 10SM CLR 01/M03 A3000 RMK AO2
KGCM 130855Z AUTO 16007KT 10SM CLR 00/M03 A3001 RMK AO2
KGCM 130835Z AUTO 16007KT 10SM CLR 00/M03 A3002 RMK AO2
KGCM 130815Z AUTO 17009KT 10SM CLR 00/M03 A3003 RMK AO2
KGCM 130755Z AUTO 17006KT 10SM CLR 00/M03 A3003 RMK AO2
KGCM 130735Z AUTO 16007KT 10SM CLR 00/M03 A3003 RMK AO2
KGCM 130715Z AUTO 17008KT 10SM CLR 00/M04 A3005 RMK AO2
KGCM 130655Z AUTO 17007KT 10SM CLR 00/M04 A3006 RMK AO2
KGCM 130635Z AUTO 16005KT 10SM CLR 00/M04 A3008 RMK AO2
KGCM 130615Z AUTO 16007KT 10SM CLR 00/M04 A3008 RMK AO2
KGCM 130555Z AUTO 15005KT 10SM CLR 00/M04 A3010 RMK AO2
KGCM 130535Z AUTO 15007KT 10SM CLR 00/M04 A3011 RMK AO2
KGCM 130515Z AUTO 17006KT 10SM CLR 00/M05 A3011 RMK AO2
KGCM 130455Z AUTO 17008KT 10SM CLR 00/M05 A3012 RMK AO2
KGCM 130435Z AUTO 16006KT 10SM CLR 00/M06 A3013 RMK AO2
KGCM 130415Z AUTO 17007KT 10SM CLR M01/M06 A3013 RMK AO2
KGCM 130355Z AUTO 17007KT 10SM CLR 00/M07 A3015 RMK AO2
KGCM 130335Z AUTO 17006KT 10SM CLR 00/M07 A3015 RMK AO2
KGCM 130255Z AUTO 18005KT 10SM CLR 00/M07 A3017 RMK AO2
KGCM 130235Z AUTO 18006KT 10SM CLR 00/M07 A3018 RMK AO2
KGCM 130215Z AUTO 17005KT 10SM CLR 00/M07 A3018 RMK AO2
KGCM 130155Z AUTO 00000KT 10SM CLR 00/M07 A3019 RMK AO2
KGCM 130135Z AUTO 18005KT 10SM CLR 00/M07 A3020 RMK AO2
KGCM 130120Z AUTO 19006KT 10SM CLR 00/M08 A3020 RMK AO2
KGCM 130055Z AUTO 17005KT 10SM CLR 01/M08 A3021 RMK AO2
KGCM 130035Z AUTO 19004KT 10SM CLR 01/M09 A3022 RMK AO2
KGCM 130015Z AUTO 18004KT 10SM CLR 02/M09 A3022 RMK AO2
KGCM 122355Z AUTO 18003KT 10SM CLR 03/M10 A3023 RMK AO2
KGCM 122335Z AUTO 21003KT 10SM CLR 03/M10 A3023 RMK AO2
KGCM 122315Z AUTO 00000KT 10SM CLR 05/M10 A3024 RMK AO2
KGCM 122255Z AUTO 00000KT 10SM CLR 06/M09 A3025 RMK AO2
KGCM 122235Z AUTO 29004KT 10SM CLR 06/M09 A3026 RMK AO2
KGCM 122215Z AUTO 30005KT 10SM CLR 07/M10 A3028 RMK AO2
KGCM 122155Z AUTO 30006KT 10SM CLR 07/M09 A3028 RMK AO2
KGCM 122135Z AUTO 32004KT 10SM CLR 07/M10 A3029 RMK AO2
KGCM 122115Z AUTO 30004KT 10SM CLR 07/M10 A3030 RMK AO2
KGCM 122055Z AUTO 30005KT 10SM CLR 07/M11 A3031 RMK AO2
KGCM 122035Z AUTO 32007KT 10SM CLR 07/M10 A3031 RMK AO2
KGCM 122015Z AUTO 31008KT 10SM CLR 07/M11 A3031 RMK AO2
KGCM 121955Z AUTO 30007KT 255V315 10SM CLR 06/M11 A3032 RMK AO2
KGCM 121935Z AUTO 36005KT 10SM CLR 06/M10 A3034 RMK AO2
KGCM 121915Z AUTO 29007KT 10SM CLR 06/M10 A3036 RMK AO2
KGCM 121855Z AUTO 31008KT 10SM CLR 06/M09 A3036 RMK AO2
KGCM 121835Z AUTO 31009KT 10SM CLR 06/M09 A3038 RMK AO2
KGCM 121815Z AUTO 32008KT 10SM CLR 06/M08 A3039 RMK AO2
KGCM 121755Z AUTO 33005KT 10SM CLR 05/M08 A3040 RMK AO2
KGCM 121735Z AUTO 31008KT 10SM CLR 05/M08 A3040 RMK AO2
KGCM 121715Z AUTO 31009KT 10SM CLR 04/M07 A3041 RMK AO2
KGCM 121655Z AUTO 33006KT 10SM CLR 04/M07 A3042 RMK AO2
KGCM 121635Z AUTO 35005KT 10SM CLR 03/M07 A3042 RMK AO2
KGCM 121615Z AUTO 36007KT 10SM CLR 03/M07 A3042 RMK AO2
KGCM 121555Z AUTO 32007KT 10SM CLR 02/M05 A3042 RMK AO2
KGCM 121535Z AUTO 36009KT 10SM CLR 02/M04 A3042 RMK AO2
KGCM 121515Z AUTO 35007KT 10SM CLR 01/M03 A3042 RMK AO2
KGCM 121455Z AUTO 33006KT 10SM CLR 01/M03 A3042 RMK AO2
KGCM 121435Z AUTO 33005KT 10SM CLR 00/M03 A3041 RMK AO2
KGCM 121415Z AUTO 33005KT 10SM CLR 00/M03 A3040 RMK AO2
KGCM 121355Z AUTO 32005KT 10SM CLR M01/M03 A3040 RMK AO2
KGCM 121335Z AUTO 00000KT 10SM CLR M01/M03 A3038 RMK AO2
KGCM 121315Z AUTO 00000KT 10SM CLR 00/M03 A3038 RMK AO2
KGCM 121255Z AUTO 00000KT 10SM CLR 00/M03 A3038 RMK AO2
KGCM 121235Z AUTO 35004KT 10SM CLR 00/M03 A3037 RMK AO2
KGCM 121215Z AUTO 35005KT 10SM CLR 00/M03 A3037 RMK AO2
KGCM 121155Z AUTO 35004KT 10SM CLR 01/M03 A3037 RMK AO2
KGCM 121135Z AUTO 35004KT 10SM CLR 01/M03 A3037 RMK AO2
KGCM 121115Z AUTO 34003KT 10SM CLR 01/M02 A3037 RMK AO2
KGCM 121055Z AUTO 36007KT 10SM CLR 02/M02 A3037 RMK AO2
KGCM 121035Z AUTO 34005KT 10SM CLR 02/M02 A3037 RMK AO2
KGCM 121015Z AUTO 33007KT 10SM CLR 02/M02 A3037 RMK AO2
KGCM 120955Z AUTO 33007KT 10SM CLR 02/M01 A3036 RMK AO2
KGCM 120935Z AUTO 32003KT 10SM CLR 02/M01 A3036 RMK AO2
KGCM 120915Z AUTO 33004KT 10SM CLR 03/M01 A3035 RMK AO2
KGCM 120855Z AUTO 33006KT 10SM CLR 03/M01 A3035 RMK AO2
KGCM 120835Z AUTO 35007KT 10SM SCT035 04/M01 A3034 RMK AO2
KGCM 120815Z AUTO 35007KT 10SM SCT037 04/M01 A3034 RMK AO2
KGCM 120755Z AUTO 34006KT 10SM SCT040 05/M01 A3033 RMK AO2
KGCM 120735Z AUTO 35007KT 10SM SCT040 05/M01 A3033 RMK AO2
KGCM 120715Z AUTO 34006KT 10SM CLR 05/M01 A3032 RMK AO2
KGCM 120655Z AUTO 36011G20KT 10SM CLR 06/M01 A3031 RMK AO2
KGCM 120635Z AUTO 35011G21KT 10SM CLR 06/M01 A3031 RMK AO2
KGCM 120615Z AUTO 34009KT 10SM CLR 06/M01 A3030 RMK AO2
KGCM 120555Z AUTO 34007KT 10SM CLR 07/M01 A3029 RMK AO2
KGCM 120535Z AUTO 34009KT 10SM CLR 07/M01 A3028 RMK AO2
KGCM 120515Z AUTO 34011G17KT 10SM CLR 08/M01 A3028 RMK AO2
KGCM 120455Z AUTO 34010G16KT 10SM CLR 08/M01 A3026 RMK AO2
KGCM 120435Z AUTO 34011G22KT 10SM CLR 09/M02 A3025 RMK AO2
KGCM 120420Z AUTO 34013G18KT 10SM CLR 09/M02 A3024 RMK AO2
KGCM 120355Z AUTO 34009G17KT 10SM CLR 10/M02 A3023 RMK AO2
KGCM 120335Z AUTO 34009G15KT 10SM CLR 10/M02 A3022 RMK AO2
KGCM 120315Z AUTO 34010G17KT 10SM CLR 10/M02 A3021 RMK AO2
KGCM 120255Z AUTO 34011G16KT 10SM CLR 11/M02 A3020 RMK AO2
KGCM 120235Z AUTO 35010G22KT 10SM CLR 11/M02 A3019 RMK AO2
KGCM 120215Z AUTO 35013G19KT 10SM CLR 12/M03 A3018 RMK AO2
KGCM 120155Z AUTO 36011G16KT 10SM CLR 12/M03 A3018 RMK AO2
KGCM 120135Z AUTO 35013G19KT 10SM CLR 12/M04 A3017 RMK AO2
KGCM 120115Z AUTO 35008KT 10SM CLR 12/M05 A3016 RMK AO2
KGCM 120055Z AUTO 33007KT 10SM CLR 12/M06 A3014 RMK AO2
KGCM 120035Z AUTO 34008G15KT 10SM CLR 13/M06 A3013 RMK AO2
KGCM 120015Z AUTO 33011G19KT 10SM CLR 14/M06 A3011 RMK AO2
KGCM 112355Z AUTO 34015G23KT 10SM CLR 15/M07 A3011 RMK AO2
KGCM 112335Z AUTO 35011G18KT 10SM CLR 15/M07 A3009 RMK AO2
KGCM 112315Z AUTO 34009G19KT 10SM CLR 16/M07 A3008 RMK AO2
KGCM 112255Z AUTO 34009G23KT 10SM CLR 17/M06 A3007 RMK AO2
KGCM 112235Z AUTO 30006KT 10SM CLR 17/M06 A3006 RMK AO2
KGCM 112215Z AUTO 31006KT 10SM CLR 18/M06 A3006 RMK AO2
KGCM 112155Z AUTO 30008KT 10SM CLR 18/M06 A3005 RMK AO2
KGCM 112135Z AUTO 31007KT 10SM CLR 19/M06 A3005 RMK AO2